sensor_id;sensor_type;location;lat;lon;timestamp;P1;durP1;ratioP1;P2;durP2;ratioP2
68854;SDS011;69984;-43.570;172.580;2023-09-19T00:00:37;2.38;;;0.30;;
68854;SDS011;69984;-43.570;172.580;2023-09-19T00:03:06;0.80;;;0.47;;
68854;SDS011;69984;-43.570;172.580;2023-09-19T00:05:35;2.40;;;0.13;;
68854;SDS011;69984;-43.570;172.580;2023-09-19T00:08:10;0.35;;;0.32;;
68854;SDS011;69984;-43.570;172.580;2023-09-19T00:10:40;0.90;;;0.28;;
68854;SDS011;69984;-43.570;172.580;2023-09-19T00:13:08;3.28;;;0.30;;
68854;SDS011;69984;-43.570;172.580;2023-09-19T00:15:39;0.80;;;0.30;;
68854;SDS011;69984;-43.570;172.580;2023-09-19T00:18:08;1.27;;;0.70;;
68854;SDS011;69984;-43.570;172.580;2023-09-19T00:20:36;1.67;;;0.40;;
68854;SDS011;69984;-43.570;172.580;2023-09-19T00:23:04;0.35;;;0.10;;
68854;SDS011;69984;-43.570;172.580;2023-09-19T00:25:33;0.88;;;0.40;;
68854;SDS011;69984;-43.570;172.580;2023-09-19T00:28:03;0.93;;;0.40;;
68854;SDS011;69984;-43.570;172.580;2023-09-19T00:30:32;0.20;;;0.20;;
68854;SDS011;69984;-43.570;172.580;2023-09-19T00:32:59;0.30;;;0.20;;
68854;SDS011;69984;-43.570;172.580;2023-09-19T00:35:31;5.07;;;0.57;;
68854;SDS011;69984;-43.570;172.580;2023-09-19T00:37:58;1.65;;;0.60;;
68854;SDS011;69984;-43.570;172.580;2023-09-19T00:40:26;1.55;;;0.35;;
68854;SDS011;69984;-43.570;172.580;2023-09-19T00:42:53;2.28;;;0.77;;
68854;SDS011;69984;-43.570;172.580;2023-09-19T00:45:27;4.65;;;0.45;;
68854;SDS011;69984;-43.570;172.580;2023-09-19T00:47:55;1.10;;;0.30;;
68854;SDS011;69984;-43.570;172.580;2023-09-19T00:50:24;1.23;;;0.60;;
68854;SDS011;69984;-43.570;172.580;2023-09-19T00:52:54;0.47;;;0.30;;
68854;SDS011;69984;-43.570;172.580;2023-09-19T00:55:22;4.90;;;0.50;;
68854;SDS011;69984;-43.570;172.580;2023-09-19T00:57:51;0.95;;;0.55;;
68854;SDS011;69984;-43.570;172.580;2023-09-19T01:00:19;1.17;;;0.30;;
68854;SDS011;69984;-43.570;172.580;2023-09-19T01:02:47;6.00;;;1.02;;
68854;SDS011;69984;-43.570;172.580;2023-09-19T01:05:14;1.48;;;0.50;;
68854;SDS011;69984;-43.570;172.580;2023-09-19T01:07:42;2.90;;;1.33;;
68854;SDS011;69984;-43.570;172.580;2023-09-19T01:10:16;2.05;;;0.60;;
68854;SDS011;69984;-43.570;172.580;2023-09-19T01:32:13;1.13;;;0.52;;
68854;SDS011;69984;-43.570;172.580;2023-09-19T01:34:54;1.88;;;0.40;;
68854;SDS011;69984;-43.570;172.580;2023-09-19T01:37:31;1.40;;;0.45;;
68854;SDS011;69984;-43.570;172.580;2023-09-19T01:40:04;2.22;;;0.60;;
68854;SDS011;69984;-43.570;172.580;2023-09-19T01:47:54;6.63;;;0.70;;
68854;SDS011;69984;-43.570;172.580;2023-09-19T01:50:31;1.08;;;0.55;;
68854;SDS011;69984;-43.570;172.580;2023-09-19T01:55:59;5.00;;;0.45;;
68854;SDS011;69984;-43.570;172.580;2023-09-19T01:58:37;2.80;;;0.65;;
68854;SDS011;69984;-43.570;172.580;2023-09-19T02:01:08;4.60;;;0.60;;
68854;SDS011;69984;-43.570;172.580;2023-09-19T02:03:43;4.82;;;0.63;;
68854;SDS011;69984;-43.570;172.580;2023-09-19T02:06:15;1.38;;;0.50;;
68854;SDS011;69984;-43.570;172.580;2023-09-19T02:08:43;0.73;;;0.50;;
68854;SDS011;69984;-43.570;172.580;2023-09-19T02:11:12;2.08;;;0.80;;
68854;SDS011;69984;-43.570;172.580;2023-09-19T02:13:40;4.03;;;0.57;;
68854;SDS011;69984;-43.570;172.580;2023-09-19T02:16:08;1.30;;;0.70;;
68854;SDS011;69984;-43.570;172.580;2023-09-19T02:18:36;4.65;;;0.60;;
68854;SDS011;69984;-43.570;172.580;2023-09-19T02:21:04;13.93;;;1.23;;
68854;SDS011;69984;-43.570;172.580;2023-09-19T02:23:37;4.88;;;0.60;;
68854;SDS011;69984;-43.570;172.580;2023-09-19T02:26:05;6.85;;;0.75;;
68854;SDS011;69984;-43.570;172.580;2023-09-19T02:28:32;3.25;;;0.70;;
68854;SDS011;69984;-43.570;172.580;2023-09-19T02:30:59;1.52;;;0.47;;
68854;SDS011;69984;-43.570;172.580;2023-09-19T02:33:27;0.85;;;0.60;;
68854;SDS011;69984;-43.570;172.580;2023-09-19T02:35:58;3.75;;;0.60;;
68854;SDS011;69984;-43.570;172.580;2023-09-19T02:38:29;2.58;;;0.40;;
68854;SDS011;69984;-43.570;172.580;2023-09-19T02:40:56;2.40;;;0.57;;
68854;SDS011;69984;-43.570;172.580;2023-09-19T02:43:24;5.18;;;0.73;;
68854;SDS011;69984;-43.570;172.580;2023-09-19T02:45:51;4.25;;;0.82;;
68854;SDS011;69984;-43.570;172.580;2023-09-19T02:48:22;2.30;;;0.60;;
68854;SDS011;69984;-43.570;172.580;2023-09-19T02:50:51;2.55;;;0.82;;
68854;SDS011;69984;-43.570;172.580;2023-09-19T02:53:18;1.83;;;0.65;;
68854;SDS011;69984;-43.570;172.580;2023-09-19T02:55:46;1.85;;;0.57;;
68854;SDS011;69984;-43.570;172.580;2023-09-19T02:58:13;1.67;;;0.60;;
68854;SDS011;69984;-43.570;172.580;2023-09-19T03:00:41;2.78;;;0.32;;
68854;SDS011;69984;-43.570;172.580;2023-09-19T03:03:13;2.17;;;0.50;;
68854;SDS011;69984;-43.570;172.580;2023-09-19T03:05:42;1.33;;;0.60;;
68854;SDS011;69984;-43.570;172.580;2023-09-19T03:08:14;1.55;;;0.60;;
68854;SDS011;69984;-43.570;172.580;2023-09-19T03:10:42;2.22;;;0.75;;
68854;SDS011;69984;-43.570;172.580;2023-09-19T03:13:12;0.82;;;0.65;;
68854;SDS011;69984;-43.570;172.580;2023-09-19T03:15:43;2.95;;;0.65;;
68854;SDS011;69984;-43.570;172.580;2023-09-19T03:18:12;0.70;;;0.47;;
68854;SDS011;69984;-43.570;172.580;2023-09-19T03:20:39;2.67;;;0.70;;
68854;SDS011;69984;-43.570;172.580;2023-09-19T03:23:06;1.30;;;0.73;;
68854;SDS011;69984;-43.570;172.580;2023-09-19T03:25:34;1.90;;;0.98;;
68854;SDS011;69984;-43.570;172.580;2023-09-19T03:28:02;4.28;;;0.50;;
68854;SDS011;69984;-43.570;172.580;2023-09-19T03:30:33;0.68;;;0.68;;
68854;SDS011;69984;-43.570;172.580;2023-09-19T03:33:00;2.35;;;0.73;;
68854;SDS011;69984;-43.570;172.580;2023-09-19T03:35:27;3.80;;;1.02;;
68854;SDS011;69984;-43.570;172.580;2023-09-19T03:37:54;2.08;;;0.50;;
68854;SDS011;69984;-43.570;172.580;2023-09-19T03:40:21;1.10;;;0.65;;
68854;SDS011;69984;-43.570;172.580;2023-09-19T03:42:51;1.55;;;0.70;;
68854;SDS011;69984;-43.570;172.580;2023-09-19T03:45:18;1.77;;;0.50;;
68854;SDS011;69984;-43.570;172.580;2023-09-19T03:47:45;4.38;;;0.77;;
68854;SDS011;69984;-43.570;172.580;2023-09-19T03:50:15;0.80;;;0.65;;
68854;SDS011;69984;-43.570;172.580;2023-09-19T03:52:46;5.55;;;0.75;;
68854;SDS011;69984;-43.570;172.580;2023-09-19T03:55:13;1.00;;;0.70;;
68854;SDS011;69984;-43.570;172.580;2023-09-19T03:57:40;4.13;;;0.90;;
68854;SDS011;69984;-43.570;172.580;2023-09-19T04:00:07;2.40;;;0.80;;
68854;SDS011;69984;-43.570;172.580;2023-09-19T04:02:39;2.92;;;0.90;;
68854;SDS011;69984;-43.570;172.580;2023-09-19T04:05:07;5.57;;;0.70;;
68854;SDS011;69984;-43.570;172.580;2023-09-19T04:07:35;2.17;;;0.65;;
68854;SDS011;69984;-43.570;172.580;2023-09-19T04:10:03;2.47;;;0.70;;
68854;SDS011;69984;-43.570;172.580;2023-09-19T04:12:30;4.53;;;1.02;;
68854;SDS011;69984;-43.570;172.580;2023-09-19T04:14:58;1.63;;;0.75;;
68854;SDS011;69984;-43.570;172.580;2023-09-19T04:17:25;1.20;;;0.70;;
68854;SDS011;69984;-43.570;172.580;2023-09-19T04:19:52;2.53;;;0.82;;
68854;SDS011;69984;-43.570;172.580;2023-09-19T04:22:19;1.38;;;0.70;;
68854;SDS011;69984;-43.570;172.580;2023-09-19T04:24:46;1.40;;;0.80;;
68854;SDS011;69984;-43.570;172.580;2023-09-19T04:27:13;1.30;;;0.73;;
68854;SDS011;69984;-43.570;172.580;2023-09-19T04:29:40;3.50;;;0.85;;
68854;SDS011;69984;-43.570;172.580;2023-09-19T04:32:07;3.50;;;0.98;;
68854;SDS011;69984;-43.570;172.580;2023-09-19T04:34:35;1.88;;;1.00;;
68854;SDS011;69984;-43.570;172.580;2023-09-19T04:37:03;2.15;;;0.60;;
68854;SDS011;69984;-43.570;172.580;2023-09-19T04:39:31;1.65;;;1.00;;
68854;SDS011;69984;-43.570;172.580;2023-09-19T04:41:59;5.97;;;0.75;;
68854;SDS011;69984;-43.570;172.580;2023-09-19T04:44:26;1.73;;;0.80;;
68854;SDS011;69984;-43.570;172.580;2023-09-19T04:46:53;9.40;;;1.40;;
68854;SDS011;69984;-43.570;172.580;2023-09-19T04:49:21;2.20;;;1.10;;
68854;SDS011;69984;-43.570;172.580;2023-09-19T04:51:48;3.33;;;0.52;;
68854;SDS011;69984;-43.570;172.580;2023-09-19T04:54:16;0.85;;;0.70;;
68854;SDS011;69984;-43.570;172.580;2023-09-19T04:56:43;0.90;;;0.73;;
68854;SDS011;69984;-43.570;172.580;2023-09-19T04:59:10;3.35;;;0.90;;
68854;SDS011;69984;-43.570;172.580;2023-09-19T05:01:38;3.13;;;0.60;;
68854;SDS011;69984;-43.570;172.580;2023-09-19T05:04:05;5.35;;;0.77;;
68854;SDS011;69984;-43.570;172.580;2023-09-19T05:06:32;8.90;;;0.73;;
68854;SDS011;69984;-43.570;172.580;2023-09-19T05:09:01;0.85;;;0.38;;
68854;SDS011;69984;-43.570;172.580;2023-09-19T05:11:31;1.08;;;0.60;;
68854;SDS011;69984;-43.570;172.580;2023-09-19T05:13:59;0.60;;;0.50;;
68854;SDS011;69984;-43.570;172.580;2023-09-19T05:16:29;1.52;;;0.43;;
68854;SDS011;69984;-43.570;172.580;2023-09-19T05:19:00;1.45;;;0.28;;
68854;SDS011;69984;-43.570;172.580;2023-09-19T05:21:28;0.35;;;0.20;;
68854;SDS011;69984;-43.570;172.580;2023-09-19T05:23:56;1.95;;;0.10;;
68854;SDS011;69984;-43.570;172.580;2023-09-19T05:26:23;0.57;;;0.20;;
68854;SDS011;69984;-43.570;172.580;2023-09-19T05:28:50;0.28;;;0.28;;
68854;SDS011;69984;-43.570;172.580;2023-09-19T05:31:18;0.55;;;0.40;;
68854;SDS011;69984;-43.570;172.580;2023-09-19T05:33:46;2.15;;;0.50;;
68854;SDS011;69984;-43.570;172.580;2023-09-19T05:36:13;0.93;;;0.30;;
68854;SDS011;69984;-43.570;172.580;2023-09-19T05:38:42;1.17;;;0.30;;
68854;SDS011;69984;-43.570;172.580;2023-09-19T05:41:10;1.10;;;0.20;;
68854;SDS011;69984;-43.570;172.580;2023-09-19T05:43:39;0.47;;;0.20;;
68854;SDS011;69984;-43.570;172.580;2023-09-19T05:46:07;0.32;;;0.32;;
68854;SDS011;69984;-43.570;172.580;2023-09-19T05:48:34;0.88;;;0.25;;
68854;SDS011;69984;-43.570;172.580;2023-09-19T05:51:01;1.73;;;0.28;;
68854;SDS011;69984;-43.570;172.580;2023-09-19T05:53:28;0.98;;;0.20;;
68854;SDS011;69984;-43.570;172.580;2023-09-19T05:55:56;1.20;;;0.22;;
68854;SDS011;69984;-43.570;172.580;2023-09-19T05:58:26;6.88;;;0.32;;
68854;SDS011;69984;-43.570;172.580;2023-09-19T06:00:54;1.10;;;0.25;;
68854;SDS011;69984;-43.570;172.580;2023-09-19T06:03:21;0.50;;;0.30;;
68854;SDS011;69984;-43.570;172.580;2023-09-19T06:05:48;2.10;;;0.30;;
68854;SDS011;69984;-43.570;172.580;2023-09-19T06:08:17;0.82;;;0.30;;
68854;SDS011;69984;-43.570;172.580;2023-09-19T06:10:44;1.52;;;0.28;;
68854;SDS011;69984;-43.570;172.580;2023-09-19T06:13:12;0.60;;;0.60;;
68854;SDS011;69984;-43.570;172.580;2023-09-19T06:15:40;2.70;;;0.50;;
68854;SDS011;69984;-43.570;172.580;2023-09-19T06:18:10;1.08;;;0.43;;
68854;SDS011;69984;-43.570;172.580;2023-09-19T06:20:42;2.95;;;0.30;;
68854;SDS011;69984;-43.570;172.580;2023-09-19T06:23:10;1.15;;;0.30;;
68854;SDS011;69984;-43.570;172.580;2023-09-19T06:25:37;0.73;;;0.40;;
68854;SDS011;69984;-43.570;172.580;2023-09-19T06:28:04;7.60;;;0.73;;
68854;SDS011;69984;-43.570;172.580;2023-09-19T06:30:33;0.75;;;0.38;;
68854;SDS011;69984;-43.570;172.580;2023-09-19T06:33:01;3.30;;;0.22;;
68854;SDS011;69984;-43.570;172.580;2023-09-19T06:35:29;1.35;;;0.32;;
68854;SDS011;69984;-43.570;172.580;2023-09-19T06:38:01;2.67;;;1.70;;
68854;SDS011;69984;-43.570;172.580;2023-09-19T06:40:29;4.53;;;0.70;;
68854;SDS011;69984;-43.570;172.580;2023-09-19T06:42:57;4.03;;;0.40;;
68854;SDS011;69984;-43.570;172.580;2023-09-19T06:45:24;3.15;;;0.60;;
68854;SDS011;69984;-43.570;172.580;2023-09-19T06:47:52;0.52;;;0.40;;
68854;SDS011;69984;-43.570;172.580;2023-09-19T06:50:23;0.40;;;0.40;;
68854;SDS011;69984;-43.570;172.580;2023-09-19T06:52:51;26.08;;;1.70;;
68854;SDS011;69984;-43.570;172.580;2023-09-19T06:55:21;5.38;;;0.88;;
68854;SDS011;69984;-43.570;172.580;2023-09-19T06:57:53;5.28;;;0.30;;
68854;SDS011;69984;-43.570;172.580;2023-09-19T07:00:21;2.70;;;0.20;;
68854;SDS011;69984;-43.570;172.580;2023-09-19T07:02:55;0.75;;;0.40;;
68854;SDS011;69984;-43.570;172.580;2023-09-19T07:05:30;0.40;;;0.30;;
68854;SDS011;69984;-43.570;172.580;2023-09-19T07:08:01;0.10;;;0.10;;
68854;SDS011;69984;-43.570;172.580;2023-09-19T07:10:32;11.20;;;0.95;;
68854;SDS011;69984;-43.570;172.580;2023-09-19T07:13:01;0.68;;;0.30;;
68854;SDS011;69984;-43.570;172.580;2023-09-19T07:18:01;1.13;;;0.65;;
68854;SDS011;69984;-43.570;172.580;2023-09-19T07:20:28;2.67;;;0.50;;
68854;SDS011;69984;-43.570;172.580;2023-09-19T07:23:00;0.57;;;0.30;;
68854;SDS011;69984;-43.570;172.580;2023-09-19T07:25:28;1.05;;;0.40;;
68854;SDS011;69984;-43.570;172.580;2023-09-19T07:27:55;0.82;;;0.40;;
68854;SDS011;69984;-43.570;172.580;2023-09-19T07:30:26;2.80;;;0.47;;
68854;SDS011;69984;-43.570;172.580;2023-09-19T07:32:54;1.50;;;0.40;;
68854;SDS011;69984;-43.570;172.580;2023-09-19T07:35:21;1.77;;;0.47;;
68854;SDS011;69984;-43.570;172.580;2023-09-19T07:37:49;0.20;;;0.20;;
68854;SDS011;69984;-43.570;172.580;2023-09-19T07:40:17;4.68;;;0.50;;
68854;SDS011;69984;-43.570;172.580;2023-09-19T07:42:46;2.05;;;0.25;;
68854;SDS011;69984;-43.570;172.580;2023-09-19T07:45:13;0.73;;;0.40;;
68854;SDS011;69984;-43.570;172.580;2023-09-19T07:47:43;4.90;;;0.55;;
68854;SDS011;69984;-43.570;172.580;2023-09-19T07:50:14;9.00;;;0.50;;
68854;SDS011;69984;-43.570;172.580;2023-09-19T07:52:45;3.78;;;0.50;;
68854;SDS011;69984;-43.570;172.580;2023-09-19T07:55:16;1.23;;;0.30;;
68854;SDS011;69984;-43.570;172.580;2023-09-19T07:57:45;1.98;;;0.35;;
68854;SDS011;69984;-43.570;172.580;2023-09-19T08:00:12;7.32;;;0.43;;
68854;SDS011;69984;-43.570;172.580;2023-09-19T08:02:40;0.82;;;0.60;;
68854;SDS011;69984;-43.570;172.580;2023-09-19T08:05:11;4.45;;;0.47;;
68854;SDS011;69984;-43.570;172.580;2023-09-19T08:07:42;2.55;;;0.77;;
68854;SDS011;69984;-43.570;172.580;2023-09-19T08:10:11;3.47;;;0.60;;
68854;SDS011;69984;-43.570;172.580;2023-09-19T08:12:41;0.80;;;0.65;;
68854;SDS011;69984;-43.570;172.580;2023-09-19T08:15:16;0.30;;;0.30;;
68854;SDS011;69984;-43.570;172.580;2023-09-19T08:17:47;0.75;;;0.30;;
68854;SDS011;69984;-43.570;172.580;2023-09-19T08:20:15;0.68;;;0.43;;
68854;SDS011;69984;-43.570;172.580;2023-09-19T08:22:50;0.73;;;0.35;;
68854;SDS011;69984;-43.570;172.580;2023-09-19T08:25:22;0.65;;;0.50;;
68854;SDS011;69984;-43.570;172.580;2023-09-19T08:27:54;0.95;;;0.30;;
68854;SDS011;69984;-43.570;172.580;2023-09-19T08:30:23;0.32;;;0.30;;
68854;SDS011;69984;-43.570;172.580;2023-09-19T08:35:32;4.80;;;0.52;;
68854;SDS011;69984;-43.570;172.580;2023-09-19T08:37:59;0.50;;;0.50;;
68854;SDS011;69984;-43.570;172.580;2023-09-19T08:40:32;2.65;;;0.40;;
68854;SDS011;69984;-43.570;172.580;2023-09-19T08:45:33;6.28;;;0.55;;
68854;SDS011;69984;-43.570;172.580;2023-09-19T08:50:49;4.50;;;1.10;;
68854;SDS011;69984;-43.570;172.580;2023-09-19T08:53:27;1.38;;;0.60;;
68854;SDS011;69984;-43.570;172.580;2023-09-19T08:56:00;2.13;;;0.98;;
68854;SDS011;69984;-43.570;172.580;2023-09-19T08:58:31;0.52;;;0.50;;
68854;SDS011;69984;-43.570;172.580;2023-09-19T09:01:06;0.93;;;0.50;;
68854;SDS011;69984;-43.570;172.580;2023-09-19T09:03:34;0.80;;;0.40;;
68854;SDS011;69984;-43.570;172.580;2023-09-19T09:06:03;0.80;;;0.40;;
68854;SDS011;69984;-43.570;172.580;2023-09-19T09:08:31;0.40;;;0.38;;
68854;SDS011;69984;-43.570;172.580;2023-09-19T09:10:58;0.52;;;0.50;;
68854;SDS011;69984;-43.570;172.580;2023-09-19T09:13:26;0.60;;;0.30;;
68854;SDS011;69984;-43.570;172.580;2023-09-19T09:15:53;1.50;;;0.50;;
68854;SDS011;69984;-43.570;172.580;2023-09-19T09:18:20;0.30;;;0.30;;
68854;SDS011;69984;-43.570;172.580;2023-09-19T09:20:48;0.63;;;0.38;;
68854;SDS011;69984;-43.570;172.580;2023-09-19T09:23:15;0.90;;;0.40;;
68854;SDS011;69984;-43.570;172.580;2023-09-19T09:25:49;0.50;;;0.30;;
68854;SDS011;69984;-43.570;172.580;2023-09-19T09:28:25;1.45;;;0.30;;
68854;SDS011;69984;-43.570;172.580;2023-09-19T09:30:57;0.40;;;0.40;;
68854;SDS011;69984;-43.570;172.580;2023-09-19T09:33:24;0.40;;;0.35;;
68854;SDS011;69984;-43.570;172.580;2023-09-19T09:35:53;0.57;;;0.40;;
68854;SDS011;69984;-43.570;172.580;2023-09-19T09:38:30;0.22;;;0.22;;
68854;SDS011;69984;-43.570;172.580;2023-09-19T09:41:09;0.73;;;0.55;;
68854;SDS011;69984;-43.570;172.580;2023-09-19T09:43:41;1.45;;;1.00;;
68854;SDS011;69984;-43.570;172.580;2023-09-19T09:46:17;0.73;;;0.73;;
68854;SDS011;69984;-43.570;172.580;2023-09-19T09:51:45;0.82;;;0.73;;
68854;SDS011;69984;-43.570;172.580;2023-09-19T09:54:26;3.00;;;0.77;;
68854;SDS011;69984;-43.570;172.580;2023-09-19T09:57:14;2.20;;;1.60;;
68854;SDS011;69984;-43.570;172.580;2023-09-19T09:59:51;2.63;;;1.25;;
68854;SDS011;69984;-43.570;172.580;2023-09-19T10:02:42;1.70;;;0.90;;
68854;SDS011;69984;-43.570;172.580;2023-09-19T10:10:38;1.48;;;0.80;;
68854;SDS011;69984;-43.570;172.580;2023-09-19T10:13:09;0.80;;;0.68;;
68854;SDS011;69984;-43.570;172.580;2023-09-19T10:15:50;4.63;;;1.42;;
68854;SDS011;69984;-43.570;172.580;2023-09-19T10:18:21;1.08;;;0.70;;
68854;SDS011;69984;-43.570;172.580;2023-09-19T10:20:50;1.70;;;0.60;;
68854;SDS011;69984;-43.570;172.580;2023-09-19T10:23:19;4.03;;;0.70;;
68854;SDS011;69984;-43.570;172.580;2023-09-19T10:25:51;0.93;;;0.60;;
68854;SDS011;69984;-43.570;172.580;2023-09-19T10:28:20;1.73;;;0.63;;
68854;SDS011;69984;-43.570;172.580;2023-09-19T10:30:51;4.00;;;0.50;;
68854;SDS011;69984;-43.570;172.580;2023-09-19T10:33:21;11.27;;;0.60;;
68854;SDS011;69984;-43.570;172.580;2023-09-19T10:35:53;2.67;;;0.63;;
68854;SDS011;69984;-43.570;172.580;2023-09-19T10:38:24;4.55;;;0.60;;
68854;SDS011;69984;-43.570;172.580;2023-09-19T10:40:54;1.42;;;0.70;;
68854;SDS011;69984;-43.570;172.580;2023-09-19T10:43:26;0.73;;;0.60;;
68854;SDS011;69984;-43.570;172.580;2023-09-19T10:46:02;1.90;;;0.80;;
68854;SDS011;69984;-43.570;172.580;2023-09-19T10:48:33;0.70;;;0.60;;
68854;SDS011;69984;-43.570;172.580;2023-09-19T10:51:11;0.90;;;0.60;;
68854;SDS011;69984;-43.570;172.580;2023-09-19T10:56:17;2.95;;;0.77;;
68854;SDS011;69984;-43.570;172.580;2023-09-19T10:59:08;1.05;;;0.40;;
68854;SDS011;69984;-43.570;172.580;2023-09-19T11:15:06;0.65;;;0.40;;
68854;SDS011;69984;-43.570;172.580;2023-09-19T11:17:36;0.47;;;0.40;;
68854;SDS011;69984;-43.570;172.580;2023-09-19T11:30:44;0.80;;;0.60;;
68854;SDS011;69984;-43.570;172.580;2023-09-19T11:36:08;2.72;;;0.50;;
68854;SDS011;69984;-43.570;172.580;2023-09-19T11:43:52;0.68;;;0.35;;
68854;SDS011;69984;-43.570;172.580;2023-09-19T11:46:29;1.05;;;0.60;;
68854;SDS011;69984;-43.570;172.580;2023-09-19T11:49:08;0.47;;;0.40;;
68854;SDS011;69984;-43.570;172.580;2023-09-19T11:51:42;2.38;;;0.70;;
68854;SDS011;69984;-43.570;172.580;2023-09-19T11:54:10;0.90;;;0.60;;
68854;SDS011;69984;-43.570;172.580;2023-09-19T11:56:53;2.25;;;0.90;;
68854;SDS011;69984;-43.570;172.580;2023-09-19T11:59:21;2.35;;;0.60;;
68854;SDS011;69984;-43.570;172.580;2023-09-19T12:02:05;4.28;;;0.60;;
68854;SDS011;69984;-43.570;172.580;2023-09-19T12:07:16;2.28;;;0.60;;
68854;SDS011;69984;-43.570;172.580;2023-09-19T12:09:47;2.67;;;0.90;;
68854;SDS011;69984;-43.570;172.580;2023-09-19T12:12:20;1.42;;;0.80;;
68854;SDS011;69984;-43.570;172.580;2023-09-19T12:14:56;1.17;;;0.60;;
68854;SDS011;69984;-43.570;172.580;2023-09-19T12:17:34;1.88;;;0.52;;
68854;SDS011;69984;-43.570;172.580;2023-09-19T12:20:06;0.50;;;0.47;;
68854;SDS011;69984;-43.570;172.580;2023-09-19T12:22:41;1.17;;;0.70;;
68854;SDS011;69984;-43.570;172.580;2023-09-19T12:25:09;3.17;;;0.73;;
68854;SDS011;69984;-43.570;172.580;2023-09-19T12:27:44;1.63;;;0.95;;
68854;SDS011;69984;-43.570;172.580;2023-09-19T12:30:22;0.70;;;0.63;;
68854;SDS011;69984;-43.570;172.580;2023-09-19T12:32:58;2.50;;;0.77;;
68854;SDS011;69984;-43.570;172.580;2023-09-19T12:35:29;1.70;;;0.40;;
68854;SDS011;69984;-43.570;172.580;2023-09-19T12:38:00;4.13;;;0.50;;
68854;SDS011;69984;-43.570;172.580;2023-09-19T12:40:29;1.40;;;0.68;;
68854;SDS011;69984;-43.570;172.580;2023-09-19T12:42:58;0.80;;;0.60;;
68854;SDS011;69984;-43.570;172.580;2023-09-19T12:45:30;0.63;;;0.60;;
68854;SDS011;69984;-43.570;172.580;2023-09-19T12:51:01;1.10;;;0.60;;
68854;SDS011;69984;-43.570;172.580;2023-09-19T12:56:15;3.05;;;0.90;;
68854;SDS011;69984;-43.570;172.580;2023-09-19T13:01:21;0.82;;;0.80;;
68854;SDS011;69984;-43.570;172.580;2023-09-19T13:06:47;2.17;;;1.00;;
68854;SDS011;69984;-43.570;172.580;2023-09-19T13:09:16;0.70;;;0.60;;
68854;SDS011;69984;-43.570;172.580;2023-09-19T13:11:46;2.38;;;0.75;;
68854;SDS011;69984;-43.570;172.580;2023-09-19T13:14:16;1.48;;;0.55;;
68854;SDS011;69984;-43.570;172.580;2023-09-19T13:17:01;1.08;;;0.70;;
68854;SDS011;69984;-43.570;172.580;2023-09-19T13:22:38;1.23;;;0.88;;
68854;SDS011;69984;-43.570;172.580;2023-09-19T13:25:17;1.05;;;0.75;;
68854;SDS011;69984;-43.570;172.580;2023-09-19T13:27:46;2.08;;;0.80;;
68854;SDS011;69984;-43.570;172.580;2023-09-19T13:30:17;1.67;;;1.05;;
68854;SDS011;69984;-43.570;172.580;2023-09-19T13:32:45;4.63;;;1.50;;
68854;SDS011;69984;-43.570;172.580;2023-09-19T13:35:13;2.30;;;1.30;;
68854;SDS011;69984;-43.570;172.580;2023-09-19T13:37:41;2.83;;;0.90;;
68854;SDS011;69984;-43.570;172.580;2023-09-19T13:40:10;1.70;;;1.15;;
68854;SDS011;69984;-43.570;172.580;2023-09-19T13:42:39;2.50;;;1.10;;
68854;SDS011;69984;-43.570;172.580;2023-09-19T13:45:07;3.33;;;1.38;;
68854;SDS011;69984;-43.570;172.580;2023-09-19T13:47:41;2.85;;;1.33;;
68854;SDS011;69984;-43.570;172.580;2023-09-19T13:50:08;1.70;;;1.00;;
68854;SDS011;69984;-43.570;172.580;2023-09-19T13:52:36;1.02;;;0.98;;
68854;SDS011;69984;-43.570;172.580;2023-09-19T13:55:04;2.17;;;1.08;;
68854;SDS011;69984;-43.570;172.580;2023-09-19T13:57:32;2.05;;;0.93;;
68854;SDS011;69984;-43.570;172.580;2023-09-19T13:59:59;3.60;;;1.30;;
68854;SDS011;69984;-43.570;172.580;2023-09-19T14:02:26;6.22;;;1.00;;
68854;SDS011;69984;-43.570;172.580;2023-09-19T14:04:54;2.50;;;1.10;;
68854;SDS011;69984;-43.570;172.580;2023-09-19T14:07:21;1.60;;;0.70;;
68854;SDS011;69984;-43.570;172.580;2023-09-19T14:09:48;1.77;;;0.90;;
68854;SDS011;69984;-43.570;172.580;2023-09-19T14:12:15;1.25;;;0.70;;
68854;SDS011;69984;-43.570;172.580;2023-09-19T14:14:42;3.33;;;0.70;;
68854;SDS011;69984;-43.570;172.580;2023-09-19T14:17:10;3.60;;;0.88;;
68854;SDS011;69984;-43.570;172.580;2023-09-19T14:19:40;0.75;;;0.70;;
68854;SDS011;69984;-43.570;172.580;2023-09-19T14:22:09;1.75;;;0.70;;
68854;SDS011;69984;-43.570;172.580;2023-09-19T14:24:36;1.65;;;0.73;;
68854;SDS011;69984;-43.570;172.580;2023-09-19T14:27:04;4.63;;;0.73;;
68854;SDS011;69984;-43.570;172.580;2023-09-19T14:29:32;1.13;;;0.80;;
68854;SDS011;69984;-43.570;172.580;2023-09-19T14:31:59;2.35;;;0.77;;
68854;SDS011;69984;-43.570;172.580;2023-09-19T14:34:26;3.33;;;1.00;;
68854;SDS011;69984;-43.570;172.580;2023-09-19T14:36:53;2.42;;;0.93;;
68854;SDS011;69984;-43.570;172.580;2023-09-19T14:39:21;1.20;;;0.90;;
68854;SDS011;69984;-43.570;172.580;2023-09-19T14:41:49;0.95;;;0.80;;
68854;SDS011;69984;-43.570;172.580;2023-09-19T14:44:16;9.80;;;1.23;;
68854;SDS011;69984;-43.570;172.580;2023-09-19T14:46:43;0.98;;;0.88;;
68854;SDS011;69984;-43.570;172.580;2023-09-19T14:49:10;2.03;;;1.00;;
68854;SDS011;69984;-43.570;172.580;2023-09-19T14:51:38;1.48;;;0.90;;
68854;SDS011;69984;-43.570;172.580;2023-09-19T14:54:09;2.30;;;1.10;;
68854;SDS011;69984;-43.570;172.580;2023-09-19T14:56:36;3.13;;;1.55;;
68854;SDS011;69984;-43.570;172.580;2023-09-19T14:59:03;6.00;;;1.25;;
68854;SDS011;69984;-43.570;172.580;2023-09-19T15:01:32;5.20;;;1.60;;
68854;SDS011;69984;-43.570;172.580;2023-09-19T15:03:59;6.40;;;1.48;;
68854;SDS011;69984;-43.570;172.580;2023-09-19T15:06:26;2.20;;;1.42;;
68854;SDS011;69984;-43.570;172.580;2023-09-19T15:08:53;3.90;;;1.77;;
68854;SDS011;69984;-43.570;172.580;2023-09-19T15:11:20;1.90;;;1.13;;
68854;SDS011;69984;-43.570;172.580;2023-09-19T15:13:50;2.67;;;0.95;;
68854;SDS011;69984;-43.570;172.580;2023-09-19T15:16:21;1.92;;;1.00;;
68854;SDS011;69984;-43.570;172.580;2023-09-19T15:18:49;6.10;;;1.35;;
68854;SDS011;69984;-43.570;172.580;2023-09-19T15:21:17;1.23;;;1.13;;
68854;SDS011;69984;-43.570;172.580;2023-09-19T15:23:45;3.78;;;1.08;;
68854;SDS011;69984;-43.570;172.580;2023-09-19T15:26:13;2.67;;;1.05;;
68854;SDS011;69984;-43.570;172.580;2023-09-19T15:28:47;3.65;;;1.38;;
68854;SDS011;69984;-43.570;172.580;2023-09-19T15:31:15;3.40;;;1.15;;
68854;SDS011;69984;-43.570;172.580;2023-09-19T15:33:42;2.05;;;1.00;;
68854;SDS011;69984;-43.570;172.580;2023-09-19T15:36:09;3.40;;;1.23;;
68854;SDS011;69984;-43.570;172.580;2023-09-19T15:38:56;8.48;;;1.52;;
68854;SDS011;69984;-43.570;172.580;2023-09-19T15:41:32;4.35;;;0.75;;
68854;SDS011;69984;-43.570;172.580;2023-09-19T15:44:01;2.03;;;0.98;;
68854;SDS011;69984;-43.570;172.580;2023-09-19T15:46:29;1.73;;;1.10;;
68854;SDS011;69984;-43.570;172.580;2023-09-19T15:49:01;1.02;;;0.93;;
68854;SDS011;69984;-43.570;172.580;2023-09-19T15:51:28;0.88;;;0.85;;
68854;SDS011;69984;-43.570;172.580;2023-09-19T15:53:55;3.13;;;0.90;;
68854;SDS011;69984;-43.570;172.580;2023-09-19T15:56:25;2.70;;;1.20;;
68854;SDS011;69984;-43.570;172.580;2023-09-19T15:58:53;4.63;;;1.05;;
68854;SDS011;69984;-43.570;172.580;2023-09-19T16:01:21;2.83;;;1.02;;